sensor_id;sensor_type;location;lat;lon;timestamp;pressure;altitude;pressure_sealevel;temperature;humidity
54920;BME280;63804;53.120;8.764;2023-09-19T00:02:06;100480.44;;;18.74;73.30
54920;BME280;63804;53.120;8.764;2023-09-19T00:04:35;100490.50;;;18.72;73.54
54920;BME280;63804;53.120;8.764;2023-09-19T00:07:07;100482.09;;;18.75;73.38
54920;BME280;63804;53.120;8.764;2023-09-19T00:09:36;100485.63;;;18.76;73.10
54920;BME280;63804;53.120;8.764;2023-09-19T00:12:06;100493.34;;;18.71;73.68
54920;BME280;63804;53.120;8.764;2023-09-19T00:14:36;100503.38;;;18.69;73.59
54920;BME280;63804;53.120;8.764;2023-09-19T00:17:04;100502.53;;;18.68;73.43
54920;BME280;63804;53.120;8.764;2023-09-19T00:19:36;100507.28;;;18.74;73.38
54920;BME280;63804;53.120;8.764;2023-09-19T00:22:04;100503.56;;;18.75;73.39
54920;BME280;63804;53.120;8.764;2023-09-19T00:24:31;100507.28;;;18.74;73.72
54920;BME280;63804;53.120;8.764;2023-09-19T00:26:59;100511.63;;;18.75;73.42
54920;BME280;63804;53.120;8.764;2023-09-19T00:29:26;100504.06;;;18.79;73.54
54920;BME280;63804;53.120;8.764;2023-09-19T00:31:58;100514.97;;;18.78;73.57
54920;BME280;63804;53.120;8.764;2023-09-19T00:34:26;100509.94;;;18.74;73.60
54920;BME280;63804;53.120;8.764;2023-09-19T00:36:55;100516.63;;;18.79;73.93
54920;BME280;63804;53.120;8.764;2023-09-19T00:39:22;100521.69;;;18.73;73.55
54920;BME280;63804;53.120;8.764;2023-09-19T00:41:52;100532.59;;;18.72;73.83
54920;BME280;63804;53.120;8.764;2023-09-19T00:44:20;100524.72;;;18.70;73.63
54920;BME280;63804;53.120;8.764;2023-09-19T00:46:50;100538.13;;;18.70;73.84
54920;BME280;63804;53.120;8.764;2023-09-19T00:49:20;100529.06;;;18.63;73.84
54920;BME280;63804;53.120;8.764;2023-09-19T00:51:49;100530.22;;;18.61;73.47
54920;BME280;63804;53.120;8.764;2023-09-19T00:54:18;100525.19;;;18.58;73.86
54920;BME280;63804;53.120;8.764;2023-09-19T00:56:45;100532.56;;;18.64;73.35
54920;BME280;63804;53.120;8.764;2023-09-19T00:59:13;100538.13;;;18.62;73.63
54920;BME280;63804;53.120;8.764;2023-09-19T01:01:41;100531.56;;;18.65;73.20
54920;BME280;63804;53.120;8.764;2023-09-19T01:04:09;100536.09;;;18.64;72.83
54920;BME280;63804;53.120;8.764;2023-09-19T01:06:37;100546.81;;;18.64;72.50
54920;BME280;63804;53.120;8.764;2023-09-19T01:09:06;100546.47;;;18.67;72.00
54920;BME280;63804;53.120;8.764;2023-09-19T01:11:42;100552.88;;;18.74;71.64
54920;BME280;63804;53.120;8.764;2023-09-19T01:14:23;100559.72;;;18.69;71.65
54920;BME280;63804;53.120;8.764;2023-09-19T01:22:16;100557.72;;;18.63;71.48
54920;BME280;63804;53.120;8.764;2023-09-19T01:30:43;100574.69;;;18.47;72.41
54920;BME280;63804;53.120;8.764;2023-09-19T01:33:11;100577.19;;;18.40;72.30
54920;BME280;63804;53.120;8.764;2023-09-19T01:35:38;100584.88;;;18.35;72.54
54920;BME280;63804;53.120;8.764;2023-09-19T01:38:06;100581.38;;;18.35;72.24
54920;BME280;63804;53.120;8.764;2023-09-19T01:40:42;100586.22;;;18.31;72.02
54920;BME280;63804;53.120;8.764;2023-09-19T01:43:21;100592.94;;;18.19;71.43
54920;BME280;63804;53.120;8.764;2023-09-19T01:46:04;100600.44;;;17.99;71.09
54920;BME280;63804;53.120;8.764;2023-09-19T01:51:45;100605.50;;;18.02;69.75
54920;BME280;63804;53.120;8.764;2023-09-19T01:54:18;100606.81;;;17.98;70.30
54920;BME280;63804;53.120;8.764;2023-09-19T01:57:00;100612.50;;;17.87;70.10
54920;BME280;63804;53.120;8.764;2023-09-19T01:59:39;100608.47;;;17.91;69.83
54920;BME280;63804;53.120;8.764;2023-09-19T02:02:08;100621.88;;;17.91;69.49
54920;BME280;63804;53.120;8.764;2023-09-19T02:04:36;100615.00;;;17.88;68.95
54920;BME280;63804;53.120;8.764;2023-09-19T02:07:04;100626.00;;;17.77;68.60
54920;BME280;63804;53.120;8.764;2023-09-19T02:09:33;100623.00;;;17.80;68.40
54920;BME280;63804;53.120;8.764;2023-09-19T02:12:02;100627.03;;;17.84;68.10
54920;BME280;63804;53.120;8.764;2023-09-19T02:14:31;100616.44;;;17.74;67.86
54920;BME280;63804;53.120;8.764;2023-09-19T02:16:59;100622.19;;;17.80;67.59
54920;BME280;63804;53.120;8.764;2023-09-19T02:19:27;100623.69;;;17.82;67.33
54920;BME280;63804;53.120;8.764;2023-09-19T02:21:55;100618.41;;;17.64;67.33
54920;BME280;63804;53.120;8.764;2023-09-19T02:24:22;100622.09;;;17.63;67.70
54920;BME280;63804;53.120;8.764;2023-09-19T02:26:54;100621.91;;;17.57;67.67
54920;BME280;63804;53.120;8.764;2023-09-19T02:29:21;100627.75;;;17.52;67.97
54920;BME280;63804;53.120;8.764;2023-09-19T02:31:49;100630.25;;;17.53;67.67
54920;BME280;63804;53.120;8.764;2023-09-19T02:34:17;100630.59;;;17.59;68.29
54920;BME280;63804;53.120;8.764;2023-09-19T02:36:45;100639.50;;;17.59;67.35
54920;BME280;63804;53.120;8.764;2023-09-19T02:39:13;100633.41;;;17.49;68.15
54920;BME280;63804;53.120;8.764;2023-09-19T02:41:40;100634.25;;;17.49;67.94
54920;BME280;63804;53.120;8.764;2023-09-19T02:44:08;100636.75;;;17.51;67.64
54920;BME280;63804;53.120;8.764;2023-09-19T02:46:36;100641.78;;;17.46;68.04
54920;BME280;63804;53.120;8.764;2023-09-19T02:49:04;100638.56;;;17.42;68.09
54920;BME280;63804;53.120;8.764;2023-09-19T02:51:34;100642.88;;;17.35;68.34
54920;BME280;63804;53.120;8.764;2023-09-19T02:54:02;100652.19;;;17.23;68.82
54920;BME280;63804;53.120;8.764;2023-09-19T02:56:32;100653.03;;;17.23;68.90
54920;BME280;63804;53.120;8.764;2023-09-19T02:58:59;100648.19;;;17.27;68.57
54920;BME280;63804;53.120;8.764;2023-09-19T03:01:28;100649.84;;;17.20;68.95
54920;BME280;63804;53.120;8.764;2023-09-19T03:03:55;100657.16;;;17.10;69.10
54920;BME280;63804;53.120;8.764;2023-09-19T03:06:23;100647.31;;;17.18;69.15
54920;BME280;63804;53.120;8.764;2023-09-19T03:08:51;100644.66;;;17.18;69.21
54920;BME280;63804;53.120;8.764;2023-09-19T03:11:19;100637.41;;;17.11;69.40
54920;BME280;63804;53.120;8.764;2023-09-19T03:13:54;100644.34;;;17.21;69.30
54920;BME280;63804;53.120;8.764;2023-09-19T03:16:21;100650.53;;;17.22;68.85
54920;BME280;63804;53.120;8.764;2023-09-19T03:18:49;100656.97;;;17.11;69.19
54920;BME280;63804;53.120;8.764;2023-09-19T03:21:17;100674.13;;;17.00;69.86
54920;BME280;63804;53.120;8.764;2023-09-19T03:23:46;100659.75;;;17.01;70.17
54920;BME280;63804;53.120;8.764;2023-09-19T03:26:14;100666.00;;;17.10;69.87
54920;BME280;63804;53.120;8.764;2023-09-19T03:28:43;100669.78;;;16.99;70.01
54920;BME280;63804;53.120;8.764;2023-09-19T03:31:13;100670.63;;;17.00;70.35
54920;BME280;63804;53.120;8.764;2023-09-19T03:33:41;100680.19;;;17.02;70.17
54920;BME280;63804;53.120;8.764;2023-09-19T03:36:09;100688.66;;;16.98;70.38
54920;BME280;63804;53.120;8.764;2023-09-19T03:38:37;100683.47;;;16.96;70.40
54920;BME280;63804;53.120;8.764;2023-09-19T03:41:04;100674.59;;;16.96;70.55
54920;BME280;63804;53.120;8.764;2023-09-19T03:43:32;100668.78;;;17.00;70.45
54920;BME280;63804;53.120;8.764;2023-09-19T03:46:03;100675.50;;;17.04;70.12
54920;BME280;63804;53.120;8.764;2023-09-19T03:48:35;100683.94;;;16.92;70.50
54920;BME280;63804;53.120;8.764;2023-09-19T03:51:02;100678.22;;;16.87;70.89
54920;BME280;63804;53.120;8.764;2023-09-19T03:53:30;100679.91;;;16.88;70.57
54920;BME280;63804;53.120;8.764;2023-09-19T03:55:57;100677.91;;;16.90;70.40
54920;BME280;63804;53.120;8.764;2023-09-19T03:58:25;100679.44;;;16.92;70.36
54920;BME280;63804;53.120;8.764;2023-09-19T04:00:57;100693.50;;;16.94;70.08
54920;BME280;63804;53.120;8.764;2023-09-19T04:03:25;100687.63;;;16.91;70.21
54920;BME280;63804;53.120;8.764;2023-09-19T04:06:02;100683.88;;;16.84;70.38
54920;BME280;63804;53.120;8.764;2023-09-19T04:08:30;100692.09;;;16.90;70.21
54920;BME280;63804;53.120;8.764;2023-09-19T04:10:57;100694.09;;;16.88;69.86
54920;BME280;63804;53.120;8.764;2023-09-19T04:13:26;100698.63;;;16.88;69.44
54920;BME280;63804;53.120;8.764;2023-09-19T04:15:53;100703.44;;;16.84;69.50
54920;BME280;63804;53.120;8.764;2023-09-19T04:20:34;100694.94;;;16.71;69.72
54920;BME280;63804;53.120;8.764;2023-09-19T04:23:02;100690.88;;;16.67;69.65
54920;BME280;63804;53.120;8.764;2023-09-19T04:25:29;100683.66;;;16.77;69.32
54920;BME280;63804;53.120;8.764;2023-09-19T04:27:57;100692.13;;;16.72;69.17
54920;BME280;63804;53.120;8.764;2023-09-19T04:30:25;100686.06;;;16.70;68.99
54920;BME280;63804;53.120;8.764;2023-09-19T04:32:52;100690.53;;;16.79;68.54
54920;BME280;63804;53.120;8.764;2023-09-19T04:35:20;100694.19;;;16.78;68.70
54920;BME280;63804;53.120;8.764;2023-09-19T04:37:50;100682.03;;;16.84;68.70
54920;BME280;63804;53.120;8.764;2023-09-19T04:40:18;100688.16;;;16.76;68.64
54920;BME280;63804;53.120;8.764;2023-09-19T04:42:56;100684.50;;;16.77;68.60
54920;BME280;63804;53.120;8.764;2023-09-19T04:45:28;100697.72;;;16.79;68.78
54920;BME280;63804;53.120;8.764;2023-09-19T04:47:55;100703.22;;;16.77;68.67
54920;BME280;63804;53.120;8.764;2023-09-19T04:50:23;100701.53;;;16.76;69.04
54920;BME280;63804;53.120;8.764;2023-09-19T04:52:54;100700.84;;;16.74;69.39
54920;BME280;63804;53.120;8.764;2023-09-19T04:55:21;100711.00;;;16.53;70.20
54920;BME280;63804;53.120;8.764;2023-09-19T04:57:50;100710.00;;;16.54;70.25
54920;BME280;63804;53.120;8.764;2023-09-19T05:00:22;100712.38;;;16.57;70.06
54920;BME280;63804;53.120;8.764;2023-09-19T05:02:52;100711.91;;;16.62;70.14
54920;BME280;63804;53.120;8.764;2023-09-19T05:05:22;100731.75;;;16.59;70.03
54920;BME280;63804;53.120;8.764;2023-09-19T05:07:51;100718.38;;;16.59;69.87
54920;BME280;63804;53.120;8.764;2023-09-19T05:10:20;100726.47;;;16.67;69.65
54920;BME280;63804;53.120;8.764;2023-09-19T05:12:48;100732.09;;;16.74;69.34
54920;BME280;63804;53.120;8.764;2023-09-19T05:15:19;100739.41;;;16.72;69.57
54920;BME280;63804;53.120;8.764;2023-09-19T05:17:48;100732.22;;;16.72;69.56
54920;BME280;63804;53.120;8.764;2023-09-19T05:20:22;100735.47;;;16.76;69.44
54920;BME280;63804;53.120;8.764;2023-09-19T05:23:01;100737.97;;;16.77;69.65
54920;BME280;63804;53.120;8.764;2023-09-19T05:25:32;100736.53;;;16.83;69.09
54920;BME280;63804;53.120;8.764;2023-09-19T05:28:00;100724.59;;;16.77;69.52
54920;BME280;63804;53.120;8.764;2023-09-19T05:30:32;100720.56;;;16.73;69.92
54920;BME280;63804;53.120;8.764;2023-09-19T05:32:59;100722.94;;;16.76;69.58
54920;BME280;63804;53.120;8.764;2023-09-19T05:35:27;100724.97;;;16.83;69.52
54920;BME280;63804;53.120;8.764;2023-09-19T05:37:55;100745.00;;;16.78;69.87
54920;BME280;63804;53.120;8.764;2023-09-19T05:40:24;100756.94;;;16.84;69.82
54920;BME280;63804;53.120;8.764;2023-09-19T05:42:52;100744.09;;;16.88;69.86
54920;BME280;63804;53.120;8.764;2023-09-19T05:45:19;100739.06;;;16.85;69.65
54920;BME280;63804;53.120;8.764;2023-09-19T05:47:50;100742.88;;;16.82;69.88
54920;BME280;63804;53.120;8.764;2023-09-19T05:50:18;100740.06;;;16.84;69.80
54920;BME280;63804;53.120;8.764;2023-09-19T05:52:53;100736.22;;;16.86;69.64
54920;BME280;63804;53.120;8.764;2023-09-19T05:55:21;100749.69;;;16.94;69.40
54920;BME280;63804;53.120;8.764;2023-09-19T05:57:52;100744.16;;;16.96;69.30
54920;BME280;63804;53.120;8.764;2023-09-19T06:00:21;100744.34;;;16.94;69.53
54920;BME280;63804;53.120;8.764;2023-09-19T06:02:53;100751.06;;;16.98;69.44
54920;BME280;63804;53.120;8.764;2023-09-19T06:05:22;100762.59;;;16.99;69.31
54920;BME280;63804;53.120;8.764;2023-09-19T06:07:50;100767.09;;;16.98;69.32
54920;BME280;63804;53.120;8.764;2023-09-19T06:10:19;100771.09;;;16.94;69.60
54920;BME280;63804;53.120;8.764;2023-09-19T06:12:51;100774.44;;;16.96;69.55
54920;BME280;63804;53.120;8.764;2023-09-19T06:15:18;100770.38;;;17.10;69.33
54920;BME280;63804;53.120;8.764;2023-09-19T06:17:47;100769.72;;;17.16;68.88
54920;BME280;63804;53.120;8.764;2023-09-19T06:20:16;100776.88;;;17.08;69.16
54920;BME280;63804;53.120;8.764;2023-09-19T06:22:45;100765.38;;;17.15;68.83
54920;BME280;63804;53.120;8.764;2023-09-19T06:25:14;100764.78;;;17.21;68.47
54920;BME280;63804;53.120;8.764;2023-09-19T06:27:52;100767.28;;;17.23;68.52
54920;BME280;63804;53.120;8.764;2023-09-19T06:30:22;100768.75;;;17.17;68.33
54920;BME280;63804;53.120;8.764;2023-09-19T06:32:58;100767.44;;;17.21;68.19
54920;BME280;63804;53.120;8.764;2023-09-19T06:35:28;100774.13;;;17.17;68.60
54920;BME280;63804;53.120;8.764;2023-09-19T06:37:57;100768.00;;;17.07;68.34
54920;BME280;63804;53.120;8.764;2023-09-19T06:40:26;100776.69;;;17.09;68.05
54920;BME280;63804;53.120;8.764;2023-09-19T06:42:55;100774.19;;;17.08;68.08
54920;BME280;63804;53.120;8.764;2023-09-19T06:45:23;100781.13;;;17.18;67.45
54920;BME280;63804;53.120;8.764;2023-09-19T07:04:22;100814.94;;;17.01;67.28
54920;BME280;63804;53.120;8.764;2023-09-19T07:06:50;100828.47;;;17.18;66.65
54920;BME280;63804;53.120;8.764;2023-09-19T07:09:17;100822.66;;;17.22;66.71
54920;BME280;63804;53.120;8.764;2023-09-19T07:11:46;100820.16;;;17.21;66.37
54920;BME280;63804;53.120;8.764;2023-09-19T07:14:15;100816.22;;;17.33;65.96
54920;BME280;63804;53.120;8.764;2023-09-19T07:16:42;100828.00;;;17.40;65.70
54920;BME280;63804;53.120;8.764;2023-09-19T07:19:11;100826.16;;;17.41;65.94
54920;BME280;63804;53.120;8.764;2023-09-19T07:21:39;100824.91;;;17.53;65.84
54920;BME280;63804;53.120;8.764;2023-09-19T07:24:07;100830.78;;;17.57;65.33
54920;BME280;63804;53.120;8.764;2023-09-19T07:26:35;100828.09;;;17.57;65.17
54920;BME280;63804;53.120;8.764;2023-09-19T07:29:02;100833.16;;;17.60;65.02
54920;BME280;63804;53.120;8.764;2023-09-19T07:31:31;100824.66;;;17.64;64.59
54920;BME280;63804;53.120;8.764;2023-09-19T07:33:58;100832.38;;;17.67;64.63
54920;BME280;63804;53.120;8.764;2023-09-19T07:36:26;100823.84;;;17.72;64.38
54920;BME280;63804;53.120;8.764;2023-09-19T07:38:53;100839.09;;;17.71;64.28
54920;BME280;63804;53.120;8.764;2023-09-19T07:41:33;100825.53;;;17.73;64.14
54920;BME280;63804;53.120;8.764;2023-09-19T07:44:01;100819.09;;;17.84;64.19
54920;BME280;63804;53.120;8.764;2023-09-19T07:46:28;100825.03;;;17.95;63.43
54920;BME280;63804;53.120;8.764;2023-09-19T07:48:58;100830.44;;;18.03;63.40
54920;BME280;63804;53.120;8.764;2023-09-19T07:51:26;100817.84;;;18.04;63.25
54920;BME280;63804;53.120;8.764;2023-09-19T07:53:54;100824.41;;;18.01;63.20
54920;BME280;63804;53.120;8.764;2023-09-19T07:56:22;100829.28;;;18.06;63.11
54920;BME280;63804;53.120;8.764;2023-09-19T07:58:50;100833.78;;;18.06;62.87
54920;BME280;63804;53.120;8.764;2023-09-19T08:01:17;100827.94;;;18.10;63.07
54920;BME280;63804;53.120;8.764;2023-09-19T08:03:45;100843.22;;;18.18;62.30
54920;BME280;63804;53.120;8.764;2023-09-19T08:06:13;100837.88;;;18.18;62.39
54920;BME280;63804;53.120;8.764;2023-09-19T08:08:40;100828.34;;;18.23;62.01
54920;BME280;63804;53.120;8.764;2023-09-19T08:11:08;100850.81;;;18.31;61.48
54920;BME280;63804;53.120;8.764;2023-09-19T08:13:39;100839.94;;;18.32;61.28
54920;BME280;63804;53.120;8.764;2023-09-19T08:16:16;100832.75;;;18.33;60.86
54920;BME280;63804;53.120;8.764;2023-09-19T08:18:48;100841.53;;;18.51;60.63
54920;BME280;63804;53.120;8.764;2023-09-19T08:21:22;100836.84;;;18.61;60.60
54920;BME280;63804;53.120;8.764;2023-09-19T08:23:51;100840.03;;;18.65;60.56
54920;BME280;63804;53.120;8.764;2023-09-19T08:26:19;100830.50;;;18.62;60.13
54920;BME280;63804;53.120;8.764;2023-09-19T08:28:47;100838.38;;;18.64;59.49
54920;BME280;63804;53.120;8.764;2023-09-19T08:31:15;100829.00;;;18.68;60.01
54920;BME280;63804;53.120;8.764;2023-09-19T08:33:43;100834.03;;;18.63;59.97
54920;BME280;63804;53.120;8.764;2023-09-19T08:36:16;100832.81;;;18.57;59.79
54920;BME280;63804;53.120;8.764;2023-09-19T08:38:43;100838.88;;;18.67;59.87
54920;BME280;63804;53.120;8.764;2023-09-19T08:41:11;100857.34;;;18.62;59.82
54920;BME280;63804;53.120;8.764;2023-09-19T08:43:39;100843.91;;;18.62;59.42
54920;BME280;63804;53.120;8.764;2023-09-19T08:46:09;100835.91;;;18.70;59.45
54920;BME280;63804;53.120;8.764;2023-09-19T08:48:40;100842.13;;;18.79;59.30
54920;BME280;63804;53.120;8.764;2023-09-19T08:54:30;100837.59;;;18.71;58.33
54920;BME280;63804;53.120;8.764;2023-09-19T08:57:05;100843.91;;;18.62;59.49
54920;BME280;63804;53.120;8.764;2023-09-19T08:59:37;100839.25;;;18.72;58.64
54920;BME280;63804;53.120;8.764;2023-09-19T09:02:11;100845.53;;;18.89;58.60
54920;BME280;63804;53.120;8.764;2023-09-19T09:04:43;100847.84;;;18.84;58.33
54920;BME280;63804;53.120;8.764;2023-09-19T09:07:12;100843.81;;;18.88;58.06
54920;BME280;63804;53.120;8.764;2023-09-19T09:09:40;100859.41;;;18.85;58.24
54920;BME280;63804;53.120;8.764;2023-09-19T09:12:14;100868.47;;;18.84;58.27
54920;BME280;63804;53.120;8.764;2023-09-19T09:14:46;100856.06;;;18.91;57.76
54920;BME280;63804;53.120;8.764;2023-09-19T09:17:17;100860.09;;;18.95;58.17
54920;BME280;63804;53.120;8.764;2023-09-19T09:19:47;100848.53;;;18.94;58.36
54920;BME280;63804;53.120;8.764;2023-09-19T09:22:15;100853.22;;;18.92;57.87
54920;BME280;63804;53.120;8.764;2023-09-19T09:24:53;100856.09;;;18.99;57.77
54920;BME280;63804;53.120;8.764;2023-09-19T09:27:31;100848.00;;;18.83;57.90
54920;BME280;63804;53.120;8.764;2023-09-19T09:29:59;100846.34;;;18.82;57.75
54920;BME280;63804;53.120;8.764;2023-09-19T09:32:29;100860.78;;;18.89;57.91
54920;BME280;63804;53.120;8.764;2023-09-19T09:35:00;100845.03;;;19.02;57.54
54920;BME280;63804;53.120;8.764;2023-09-19T09:37:29;100852.06;;;19.03;57.04
54920;BME280;63804;53.120;8.764;2023-09-19T09:40:02;100862.47;;;19.14;56.53
54920;BME280;63804;53.120;8.764;2023-09-19T09:42:56;100858.44;;;19.10;55.82
54920;BME280;63804;53.120;8.764;2023-09-19T09:45:26;100873.22;;;19.22;55.74
54920;BME280;63804;53.120;8.764;2023-09-19T09:48:05;100873.91;;;19.16;55.46
54920;BME280;63804;53.120;8.764;2023-09-19T09:50:48;100864.84;;;19.17;54.39
54920;BME280;63804;53.120;8.764;2023-09-19T09:53:20;100864.19;;;19.32;54.54
54920;BME280;63804;53.120;8.764;2023-09-19T09:56:08;100877.63;;;19.23;53.51
54920;BME280;63804;53.120;8.764;2023-09-19T10:01:07;100869.19;;;19.27;54.39
54920;BME280;63804;53.120;8.764;2023-09-19T10:03:42;100873.75;;;19.42;54.90
54920;BME280;63804;53.120;8.764;2023-09-19T10:06:17;100865.69;;;19.51;54.54
54920;BME280;63804;53.120;8.764;2023-09-19T10:09:09;100868.53;;;19.49;54.29
54920;BME280;63804;53.120;8.764;2023-09-19T10:11:45;100873.72;;;19.26;55.12
54920;BME280;63804;53.120;8.764;2023-09-19T10:14:15;100869.19;;;19.18;55.61
54920;BME280;63804;53.120;8.764;2023-09-19T10:16:48;100857.28;;;19.13;55.27
54920;BME280;63804;53.120;8.764;2023-09-19T10:19:20;100863.81;;;19.10;55.25
54920;BME280;63804;53.120;8.764;2023-09-19T10:21:54;100875.25;;;19.04;55.60
54920;BME280;63804;53.120;8.764;2023-09-19T10:24:23;100860.63;;;19.07;55.44
54920;BME280;63804;53.120;8.764;2023-09-19T10:26:55;100865.66;;;19.10;55.43
54920;BME280;63804;53.120;8.764;2023-09-19T10:29:22;100879.09;;;19.18;54.99
54920;BME280;63804;53.120;8.764;2023-09-19T10:31:54;100871.38;;;19.23;55.34
54920;BME280;63804;53.120;8.764;2023-09-19T10:34:23;100874.75;;;19.41;54.57
54920;BME280;63804;53.120;8.764;2023-09-19T10:36:52;100865.84;;;19.49;54.67
54920;BME280;63804;53.120;8.764;2023-09-19T10:39:21;100868.22;;;19.44;54.44
54920;BME280;63804;53.120;8.764;2023-09-19T10:41:53;100874.94;;;19.48;54.15
54920;BME280;63804;53.120;8.764;2023-09-19T10:44:25;100874.25;;;19.30;54.47
54920;BME280;63804;53.120;8.764;2023-09-19T10:46:52;100859.97;;;19.37;55.03
54920;BME280;63804;53.120;8.764;2023-09-19T10:49:21;100874.41;;;19.61;54.73
54920;BME280;63804;53.120;8.764;2023-09-19T10:51:53;100861.84;;;19.69;54.10
54920;BME280;63804;53.120;8.764;2023-09-19T10:54:25;100873.59;;;19.68;54.45
54920;BME280;63804;53.120;8.764;2023-09-19T10:56:54;100865.38;;;19.70;53.89
54920;BME280;63804;53.120;8.764;2023-09-19T10:59:24;100867.38;;;19.68;53.74
54920;BME280;63804;53.120;8.764;2023-09-19T11:01:55;100863.34;;;19.72;53.64
54920;BME280;63804;53.120;8.764;2023-09-19T11:07:10;100872.75;;;19.84;53.68
54920;BME280;63804;53.120;8.764;2023-09-19T11:09:52;100866.19;;;19.87;52.22
54920;BME280;63804;53.120;8.764;2023-09-19T11:14:59;100854.44;;;19.71;52.59
54920;BME280;63804;53.120;8.764;2023-09-19T11:30:48;100853.72;;;19.94;52.66
54920;BME280;63804;53.120;8.764;2023-09-19T11:33:29;100864.50;;;19.94;52.25
54920;BME280;63804;53.120;8.764;2023-09-19T11:36:14;100844.03;;;19.77;52.47
54920;BME280;63804;53.120;8.764;2023-09-19T11:49:19;100853.06;;;20.00;52.06
54920;BME280;63804;53.120;8.764;2023-09-19T11:51:54;100846.50;;;19.94;51.03
54920;BME280;63804;53.120;8.764;2023-09-19T11:54:22;100868.50;;;19.98;51.17
54920;BME280;63804;53.120;8.764;2023-09-19T11:56:52;100848.66;;;19.99;51.04
54920;BME280;63804;53.120;8.764;2023-09-19T11:59:22;100849.16;;;20.03;50.43
54920;BME280;63804;53.120;8.764;2023-09-19T12:01:52;100857.09;;;19.96;50.97
54920;BME280;63804;53.120;8.764;2023-09-19T12:04:42;100856.75;;;19.91;50.12
54920;BME280;63804;53.120;8.764;2023-09-19T12:07:12;100858.94;;;19.95;51.40
54920;BME280;63804;53.120;8.764;2023-09-19T12:09:45;100847.47;;;20.10;50.87
54920;BME280;63804;53.120;8.764;2023-09-19T12:12:19;100851.63;;;20.20;51.29
54920;BME280;63804;53.120;8.764;2023-09-19T12:14:48;100856.88;;;20.14;50.44
54920;BME280;63804;53.120;8.764;2023-09-19T12:17:16;100845.78;;;20.17;50.37
54920;BME280;63804;53.120;8.764;2023-09-19T12:19:56;100838.03;;;20.14;50.36
54920;BME280;63804;53.120;8.764;2023-09-19T12:22:23;100828.34;;;20.05;50.89
54920;BME280;63804;53.120;8.764;2023-09-19T12:24:52;100841.75;;;20.13;50.70
54920;BME280;63804;53.120;8.764;2023-09-19T12:27:22;100837.19;;;20.21;50.42
54920;BME280;63804;53.120;8.764;2023-09-19T12:29:49;100840.56;;;20.15;50.33
54920;BME280;63804;53.120;8.764;2023-09-19T12:32:17;100839.56;;;20.16;49.79
54920;BME280;63804;53.120;8.764;2023-09-19T12:34:51;100838.25;;;20.43;50.17
54920;BME280;63804;53.120;8.764;2023-09-19T12:37:20;100830.66;;;20.55;49.59
54920;BME280;63804;53.120;8.764;2023-09-19T12:39:50;100827.63;;;20.58;49.72
54920;BME280;63804;53.120;8.764;2023-09-19T12:42:22;100811.50;;;20.58;49.45
54920;BME280;63804;53.120;8.764;2023-09-19T12:44:53;100817.03;;;20.49;49.29
54920;BME280;63804;53.120;8.764;2023-09-19T12:47:24;100805.63;;;20.47;49.15
54920;BME280;63804;53.120;8.764;2023-09-19T12:52:40;100800.47;;;20.37;49.86
54920;BME280;63804;53.120;8.764;2023-09-19T12:55:29;100793.38;;;20.44;49.40
54920;BME280;63804;53.120;8.764;2023-09-19T13:00:42;100777.88;;;20.54;49.90
54920;BME280;63804;53.120;8.764;2023-09-19T13:05:57;100776.38;;;20.43;50.00
54920;BME280;63804;53.120;8.764;2023-09-19T13:08:27;100774.94;;;20.33;51.21
54920;BME280;63804;53.120;8.764;2023-09-19T13:13:30;100763.50;;;20.00;51.54
54920;BME280;63804;53.120;8.764;2023-09-19T13:15:58;100766.50;;;20.05;52.17
54920;BME280;63804;53.120;8.764;2023-09-19T13:18:25;100769.78;;;20.23;52.09
54920;BME280;63804;53.120;8.764;2023-09-19T13:21:07;100770.47;;;20.48;51.35
54920;BME280;63804;53.120;8.764;2023-09-19T13:23:53;100779.19;;;20.58;51.29
54920;BME280;63804;53.120;8.764;2023-09-19T13:26:26;100768.78;;;20.55;51.61
54920;BME280;63804;53.120;8.764;2023-09-19T13:28:55;100767.13;;;20.54;51.16
54920;BME280;63804;53.120;8.764;2023-09-19T13:31:23;100755.69;;;20.44;51.74
54920;BME280;63804;53.120;8.764;2023-09-19T13:33:51;100765.09;;;20.48;51.16
54920;BME280;63804;53.120;8.764;2023-09-19T13:36:19;100749.47;;;20.75;51.00
54920;BME280;63804;53.120;8.764;2023-09-19T13:38:46;100754.78;;;20.83;51.11
54920;BME280;63804;53.120;8.764;2023-09-19T13:41:16;100752.28;;;20.81;51.21
54920;BME280;63804;53.120;8.764;2023-09-19T13:43:44;100764.25;;;20.79;51.38
54920;BME280;63804;53.120;8.764;2023-09-19T13:46:15;100762.56;;;20.78;50.76
54920;BME280;63804;53.120;8.764;2023-09-19T13:48:45;100770.16;;;20.74;51.56
54920;BME280;63804;53.120;8.764;2023-09-19T13:51:12;100752.91;;;20.68;51.66
54920;BME280;63804;53.120;8.764;2023-09-19T13:53:40;100757.31;;;20.84;51.55
54920;BME280;63804;53.120;8.764;2023-09-19T13:56:07;100757.13;;;20.86;51.41
54920;BME280;63804;53.120;8.764;2023-09-19T13:58:35;100754.75;;;20.91;51.23
54920;BME280;63804;53.120;8.764;2023-09-19T14:01:03;100746.00;;;20.89;50.87
54920;BME280;63804;53.120;8.764;2023-09-19T14:03:30;100754.09;;;20.89;50.97
54920;BME280;63804;53.120;8.764;2023-09-19T14:05:59;100768.66;;;20.94;50.53
54920;BME280;63804;53.120;8.764;2023-09-19T14:08:26;100753.88;;;20.90;50.79
54920;BME280;63804;53.120;8.764;2023-09-19T14:10:54;100740.13;;;20.85;50.72
54920;BME280;63804;53.120;8.764;2023-09-19T14:13:22;100746.19;;;20.87;50.99
54920;BME280;63804;53.120;8.764;2023-09-19T14:15:49;100746.72;;;20.83;50.70
54920;BME280;63804;53.120;8.764;2023-09-19T14:18:16;100758.03;;;20.78;51.01
54920;BME280;63804;53.120;8.764;2023-09-19T14:20:46;100747.25;;;20.78;51.34
54920;BME280;63804;53.120;8.764;2023-09-19T14:23:13;100745.41;;;20.79;51.21
54920;BME280;63804;53.120;8.764;2023-09-19T14:25:41;100750.69;;;20.72;52.10